Time;durP1;ratioP1;P1;durP2;ratioP2;P2;SDS_P1;SDS_P2;PMS_P1;PMS_P2;Temp;Humidity;BMP_temperature;BMP_pressure;BME280_temperature;BME280_humidity;BME280_pressure;Samples;Min_cycle;Max_cycle;Signal;HPM_P1;HPM_P2
2023/01/19 00:00:59;;;;;;;3.10;2.77;;;6.00;99.90;;;;;;6273928;28;20462;-62
2023/01/19 00:04:05;;;;;;;2.80;2.50;;;6.00;99.90;;;;;;6273485;28;20973;-63
2023/01/19 00:07:08;;;;;;;3.20;2.90;;;6.10;99.90;;;;;;6278767;28;20471;-63
2023/01/19 00:10:12;;;;;;;2.90;2.70;;;6.10;99.90;;;;;;6278705;28;20759;-63
2023/01/19 00:13:15;;;;;;;2.87;2.67;;;6.10;99.90;;;;;;6276493;28;20481;-61
2023/01/19 00:16:21;;;;;;;3.90;3.60;;;6.00;99.90;;;;;;6265675;28;20487;-61
2023/01/19 00:19:26;;;;;;;3.50;3.20;;;6.00;99.90;;;;;;6264477;28;20485;-60
2023/01/19 00:22:29;;;;;;;4.50;3.30;;;6.10;99.90;;;;;;6263312;28;20471;-60
2023/01/19 00:25:32;;;;;;;3.77;3.47;;;6.10;99.90;;;;;;6268837;28;20603;-60
2023/01/19 00:28:36;;;;;;;3.73;3.20;;;6.10;99.90;;;;;;6302780;28;20480;-61
2023/01/19 00:31:39;;;;;;;3.93;3.37;;;6.10;99.90;;;;;;6303423;28;20477;-61
2023/01/19 00:34:48;;;;;;;4.00;3.70;;;6.10;99.90;;;;;;6303261;28;20469;-61
2023/01/19 00:37:51;;;;;;;4.20;3.90;;;6.10;99.90;;;;;;6303074;28;20556;-61
2023/01/19 00:40:54;;;;;;;6.20;5.23;;;6.10;99.90;;;;;;6307092;28;21145;-61
2023/01/19 00:43:58;;;;;;;6.50;5.80;;;6.00;99.90;;;;;;6311364;28;20473;-61
2023/01/19 00:47:03;;;;;;;6.47;5.40;;;5.90;99.90;;;;;;6306139;28;20473;-66
2023/01/19 00:50:11;;;;;;;6.40;5.80;;;5.90;99.90;;;;;;6305548;28;20485;-64
2023/01/19 00:53:14;;;;;;;5.33;4.83;;;5.80;99.90;;;;;;6286065;28;20969;-61
2023/01/19 00:56:17;;;;;;;6.67;6.03;;;5.70;99.90;;;;;;6277230;28;20476;-61
2023/01/19 00:59:20;;;;;;;6.70;5.20;;;5.70;99.90;;;;;;6277379;28;20784;-62
2023/01/19 01:02:24;;;;;;;6.10;5.50;;;5.70;99.90;;;;;;6277753;28;20470;-62
2023/01/19 01:05:30;;;;;;;6.30;5.70;;;5.70;99.90;;;;;;6277512;28;20474;-62
2023/01/19 01:08:33;;;;;;;6.93;6.23;;;5.80;99.90;;;;;;6273264;28;20970;-62
2023/01/19 01:11:36;;;;;;;8.30;6.33;;;5.90;99.90;;;;;;6275096;28;20490;-63
2023/01/19 01:14:39;;;;;;;7.00;6.30;;;5.90;99.90;;;;;;6273914;28;20815;-61
2023/01/19 01:17:46;;;;;;;6.53;5.90;;;6.00;99.90;;;;;;6262183;28;20474;-61
2023/01/19 01:20:50;;;;;;;7.03;5.97;;;6.00;99.90;;;;;;6260904;28;20468;-62
2023/01/19 01:23:57;;;;;;;6.47;5.87;;;6.00;99.90;;;;;;6261773;28;20475;-62
2023/01/19 01:27:00;;;;;;;13.73;8.10;;;6.10;99.90;;;;;;6264295;28;20463;-63
2023/01/19 01:30:04;;;;;;;10.40;6.20;;;6.10;99.90;;;;;;6262002;28;20474;-62
2023/01/19 01:33:07;;;;;;;6.23;5.33;;;6.10;99.90;;;;;;6259889;28;20470;-62
2023/01/19 01:36:12;;;;;;;7.30;6.00;;;6.00;99.90;;;;;;6253178;28;20454;-62
2023/01/19 01:39:15;;;;;;;6.47;5.80;;;5.90;99.90;;;;;;6247457;28;20455;-62
2023/01/19 01:42:20;;;;;;;6.10;4.80;;;5.90;99.90;;;;;;6251619;28;20483;-62
2023/01/19 01:45:30;;;;;;;5.43;4.93;;;5.80;99.90;;;;;;6252320;28;20482;-62
2023/01/19 01:48:33;;;;;;;6.17;5.57;;;5.80;99.90;;;;;;6251546;28;20483;-62
2023/01/19 01:51:45;;;;;;;6.47;5.37;;;5.80;99.90;;;;;;6259079;28;20462;-62
2023/01/19 01:54:48;;;;;;;7.53;6.27;;;5.80;99.90;;;;;;6260408;28;20479;-62
2023/01/19 01:57:57;;;;;;;56.50;33.57;;;5.90;99.90;;;;;;6258297;28;20554;-62
2023/01/19 02:04:21;;;;;;;47.03;34.47;;;5.80;99.90;;;;;;6260128;28;20788;-62
2023/01/19 02:14:17;;;;;;;5.50;5.00;;;5.70;99.90;;;;;;6251459;28;20471;-62
2023/01/19 02:17:21;;;;;;;4.57;3.70;;;5.70;99.90;;;;;;6251174;28;20621;-62
2023/01/19 02:20:27;;;;;;;4.60;4.20;;;5.60;99.90;;;;;;6251124;28;20479;-62
2023/01/19 02:23:41;;;;;;;6.23;5.63;;;5.60;99.90;;;;;;6261876;28;20799;-62
2023/01/19 02:26:47;;;;;;;5.80;4.83;;;5.50;99.90;;;;;;6268409;28;20482;-63
2023/01/19 02:29:50;;;;;;;5.37;4.87;;;5.40;99.90;;;;;;6260663;28;20486;-61
2023/01/19 02:32:53;;;;;;;5.50;5.00;;;5.30;99.90;;;;;;6263341;28;20477;-62
2023/01/19 02:35:57;;;;;;;6.57;4.93;;;5.10;99.90;;;;;;6262738;28;20481;-62
2023/01/19 02:39:04;;;;;;;6.57;5.47;;;5.00;99.90;;;;;;6262097;28;20458;-62
2023/01/19 02:42:12;;;;;;;7.93;7.20;;;5.00;99.90;;;;;;6259593;28;20431;-62
2023/01/19 02:45:19;;;;;;;6.63;6.13;;;5.00;99.90;;;;;;6262975;28;20432;-62
2023/01/19 02:48:23;;;;;;;6.07;5.37;;;5.00;99.90;;;;;;6262012;28;20463;-62
2023/01/19 02:51:27;;;;;;;6.20;5.70;;;5.00;99.90;;;;;;6262427;28;20470;-62
2023/01/19 02:54:41;;;;;;;5.97;5.47;;;5.00;99.90;;;;;;6262955;28;20479;-62
2023/01/19 02:58:00;;;;;;;5.13;4.67;;;5.00;99.90;;;;;;6250247;28;20486;-62
2023/01/19 03:01:12;;;;;;;4.37;4.07;;;5.10;99.90;;;;;;6250529;28;20482;-61
2023/01/19 03:04:23;;;;;;;6.90;6.20;;;4.90;99.90;;;;;;6250283;28;20474;-62
2023/01/19 03:07:41;;;;;;;5.47;4.93;;;5.00;99.90;;;;;;6250302;28;20486;-62
2023/01/19 03:10:53;;;;;;;6.07;5.10;;;5.00;99.90;;;;;;6250095;28;20578;-62
2023/01/19 03:14:00;;;;;;;4.73;4.37;;;5.10;99.90;;;;;;6250222;28;20767;-62
2023/01/19 03:17:07;;;;;;;5.20;4.10;;;5.00;99.90;;;;;;6250193;28;20470;-62
2023/01/19 03:20:13;;;;;;;5.13;4.73;;;4.80;99.90;;;;;;6250018;28;20483;-62
2023/01/19 03:23:18;;;;;;;7.50;5.60;;;4.70;99.90;;;;;;6250140;28;20467;-62
2023/01/19 03:26:28;;;;;;;4.27;3.70;;;4.70;99.90;;;;;;6272872;28;20461;-62
2023/01/19 03:29:34;;;;;;;3.90;3.60;;;4.80;99.90;;;;;;6299582;28;20480;-62
2023/01/19 03:32:43;;;;;;;3.30;3.10;;;4.90;99.90;;;;;;6299354;28;20469;-62
2023/01/19 03:35:49;;;;;;;4.10;3.80;;;4.90;99.90;;;;;;6299462;28;20530;-62
2023/01/19 03:38:55;;;;;;;3.70;3.40;;;5.00;99.90;;;;;;6299083;28;20981;-62
2023/01/19 03:42:04;;;;;;;3.07;2.87;;;5.10;99.90;;;;;;6304250;28;20480;-62
2023/01/19 03:45:08;;;;;;;3.60;2.90;;;5.20;99.90;;;;;;6304886;28;20434;-62
2023/01/19 03:48:12;;;;;;;3.20;3.00;;;5.20;99.90;;;;;;6303931;28;20457;-62
2023/01/19 03:51:18;;;;;;;3.00;2.73;;;5.20;99.90;;;;;;6304108;28;20464;-62
2023/01/19 03:54:21;;;;;;;2.20;2.10;;;5.30;99.90;;;;;;6281927;28;20470;-62
2023/01/19 03:57:26;;;;;;;2.20;2.00;;;5.30;99.90;;;;;;6279518;28;20465;-62
2023/01/19 04:00:30;;;;;;;2.00;1.80;;;5.40;99.90;;;;;;6279448;28;20472;-62
2023/01/19 04:03:33;;;;;;;2.00;1.90;;;5.30;99.90;;;;;;6278716;28;20782;-62
2023/01/19 04:06:36;;;;;;;2.00;1.87;;;5.30;99.90;;;;;;6278853;28;20481;-62
2023/01/19 04:09:39;;;;;;;1.90;1.80;;;5.30;99.90;;;;;;6279202;28;20470;-62
2023/01/19 04:12:44;;;;;;;2.30;2.10;;;5.20;99.90;;;;;;6278481;28;20477;-62
2023/01/19 04:15:47;;;;;;;2.20;2.10;;;5.20;99.90;;;;;;6278512;28;20462;-62
2023/01/19 04:18:51;;;;;;;1.83;1.73;;;5.20;99.90;;;;;;6278121;28;20474;-62
2023/01/19 04:21:55;;;;;;;2.43;2.23;;;5.20;99.90;;;;;;6278816;28;20470;-63
2023/01/19 04:24:58;;;;;;;2.30;2.10;;;5.10;99.90;;;;;;6278220;28;20980;-63
2023/01/19 04:28:03;;;;;;;2.23;2.13;;;5.10;99.90;;;;;;6278990;28;20786;-62
2023/01/19 04:31:07;;;;;;;1.90;1.80;;;5.00;99.90;;;;;;6278760;28;20482;-62
2023/01/19 04:34:10;;;;;;;2.57;2.33;;;5.10;99.90;;;;;;6278853;28;20466;-62
2023/01/19 04:37:13;;;;;;;2.17;2.07;;;5.10;99.90;;;;;;6278852;28;20469;-64
2023/01/19 04:40:17;;;;;;;2.33;2.17;;;5.10;99.90;;;;;;6278586;28;20470;-63
2023/01/19 04:43:23;;;;;;;2.53;2.40;;;5.10;99.90;;;;;;6278250;28;20578;-63
2023/01/19 04:46:26;;;;;;;2.40;2.20;;;5.00;99.90;;;;;;6278533;28;20474;-63
2023/01/19 04:49:29;;;;;;;2.50;2.30;;;5.00;99.90;;;;;;6278189;28;20511;-63
2023/01/19 04:52:34;;;;;;;2.73;2.13;;;5.00;99.90;;;;;;6276883;28;20860;-63
2023/01/19 04:55:37;;;;;;;2.13;1.93;;;4.90;99.90;;;;;;6278403;28;20466;-63
2023/01/19 04:58:42;;;;;;;2.13;2.03;;;4.90;99.90;;;;;;6282317;28;20535;-63
2023/01/19 05:01:45;;;;;;;2.20;2.10;;;4.80;99.90;;;;;;6280368;28;20481;-63
2023/01/19 05:04:49;;;;;;;2.50;2.30;;;4.80;99.90;;;;;;6278171;28;20474;-63
2023/01/19 05:07:52;;;;;;;2.30;2.10;;;4.80;99.90;;;;;;6277750;28;20470;-63
2023/01/19 05:10:56;;;;;;;1.90;1.80;;;4.70;99.90;;;;;;6277735;28;20492;-63
2023/01/19 05:14:00;;;;;;;2.40;2.30;;;4.80;99.90;;;;;;6277731;28;20469;-63
2023/01/19 05:17:04;;;;;;;2.30;2.10;;;4.80;99.90;;;;;;6277440;28;20939;-63
2023/01/19 05:20:09;;;;;;;2.47;2.27;;;4.80;99.90;;;;;;6277600;28;20478;-63
2023/01/19 05:23:12;;;;;;;3.00;2.60;;;4.70;99.90;;;;;;6277515;28;20470;-63
2023/01/19 05:26:16;;;;;;;2.93;2.73;;;4.70;99.90;;;;;;6277261;28;20482;-63
2023/01/19 05:29:21;;;;;;;2.93;2.73;;;4.70;99.90;;;;;;6277353;28;20973;-63
2023/01/19 05:32:24;;;;;;;2.07;1.97;;;4.80;99.90;;;;;;6277584;28;20478;-63
2023/01/19 05:35:27;;;;;;;2.03;1.87;;;4.80;99.90;;;;;;6277060;28;20984;-63
2023/01/19 05:38:38;;;;;;;2.13;1.93;;;4.70;99.90;;;;;;6276733;28;20837;-63
2023/01/19 05:41:43;;;;;;;2.40;2.10;;;4.70;99.80;;;;;;6276989;28;20482;-63
2023/01/19 05:44:48;;;;;;;2.37;2.17;;;4.80;99.60;;;;;;6276644;28;20485;-63
2023/01/19 05:47:51;;;;;;;2.30;2.10;;;4.80;99.60;;;;;;6276713;28;20588;-63
2023/01/19 05:50:58;;;;;;;2.60;2.10;;;4.80;99.70;;;;;;6276391;28;20482;-63
2023/01/19 05:54:01;;;;;;;2.30;2.20;;;4.80;99.50;;;;;;6272804;28;20474;-63
2023/01/19 05:57:04;;;;;;;2.37;2.20;;;4.70;99.20;;;;;;6276213;28;20457;-63
2023/01/19 06:00:11;;;;;;;2.80;2.60;;;4.70;98.70;;;;;;6276058;28;20457;-63
2023/01/19 06:03:14;;;;;;;1.87;1.77;;;4.70;98.90;;;;;;6275690;28;20835;-63
2023/01/19 06:06:17;;;;;;;1.90;1.80;;;4.70;99.10;;;;;;6276053;28;20446;-63
2023/01/19 06:09:20;;;;;;;2.80;2.60;;;4.70;98.80;;;;;;6276056;28;25126;-63
2023/01/19 06:12:24;;;;;;;1.93;1.83;;;4.70;98.80;;;;;;6275877;28;20466;-63
2023/01/19 06:15:28;;;;;;;2.40;2.20;;;4.70;98.50;;;;;;6275992;28;20486;-63
2023/01/19 06:18:31;;;;;;;3.33;2.97;;;4.80;98.60;;;;;;6275884;28;20478;-63
2023/01/19 06:21:35;;;;;;;2.60;2.40;;;4.80;98.70;;;;;;6275744;28;20477;-63
2023/01/19 06:24:38;;;;;;;2.93;2.73;;;4.80;98.90;;;;;;6275705;28;20469;-63
2023/01/19 06:27:44;;;;;;;2.70;2.50;;;4.90;98.90;;;;;;6298235;28;20812;-63
2023/01/19 06:30:50;;;;;;;2.20;2.10;;;4.90;98.90;;;;;;6300721;28;20527;-63
2023/01/19 06:33:53;;;;;;;3.03;2.60;;;5.00;98.50;;;;;;6300883;28;20575;-63
2023/01/19 06:36:57;;;;;;;3.07;2.40;;;5.00;98.30;;;;;;6299978;28;20991;-63
2023/01/19 06:40:00;;;;;;;2.03;1.93;;;5.00;98.30;;;;;;6300107;28;20698;-63
2023/01/19 06:43:03;;;;;;;2.40;2.20;;;5.00;98.10;;;;;;6299934;28;20836;-63
2023/01/19 06:46:08;;;;;;;3.20;2.90;;;5.00;98.10;;;;;;6300116;28;20515;-62
2023/01/19 06:49:11;;;;;;;2.40;2.30;;;5.00;98.10;;;;;;6299742;28;20942;-64
2023/01/19 06:52:16;;;;;;;2.27;2.17;;;5.10;98.00;;;;;;6294844;28;20474;-63
2023/01/19 06:55:19;;;;;;;2.60;2.40;;;5.10;97.70;;;;;;6275023;28;21076;-63
2023/01/19 06:58:25;;;;;;;2.77;2.53;;;5.10;97.80;;;;;;6270960;28;20484;-61
2023/01/19 07:01:29;;;;;;;2.37;2.17;;;5.10;97.80;;;;;;6274760;28;20540;-62
2023/01/19 07:04:33;;;;;;;2.33;2.13;;;5.10;97.60;;;;;;6274963;28;20485;-62
2023/01/19 07:07:38;;;;;;;2.50;2.30;;;5.10;97.20;;;;;;6277822;28;20879;-62
2023/01/19 07:10:41;;;;;;;2.23;2.00;;;5.00;96.50;;;;;;6277345;28;20484;-63
2023/01/19 07:14:04;;;;;;;2.43;1.83;;;5.00;96.30;;;;;;6274196;28;20586;-63
2023/01/19 07:17:09;;;;;;;2.00;1.90;;;5.00;96.60;;;;;;6274826;28;20474;-64
2023/01/19 07:20:13;;;;;;;2.00;1.90;;;5.00;96.60;;;;;;6274541;28;20996;-63
2023/01/19 07:23:17;;;;;;;1.90;1.80;;;5.00;96.40;;;;;;6274449;28;20466;-63
2023/01/19 07:26:23;;;;;;;2.70;2.50;;;5.00;96.00;;;;;;6286064;28;20472;-63
2023/01/19 07:29:27;;;;;;;2.67;2.47;;;4.90;96.30;;;;;;6299121;28;20477;-63
2023/01/19 07:32:32;;;;;;;4.03;3.73;;;4.90;96.50;;;;;;6299586;28;20484;-63
2023/01/19 07:35:35;;;;;;;2.10;2.00;;;5.00;96.00;;;;;;6299336;28;20477;-63
2023/01/19 07:38:38;;;;;;;4.80;3.73;;;5.00;96.20;;;;;;6299005;28;20488;-63
2023/01/19 07:41:41;;;;;;;5.50;4.70;;;5.10;95.70;;;;;;6298912;28;20473;-63
2023/01/19 07:44:44;;;;;;;4.00;3.60;;;5.10;95.60;;;;;;6299129;28;20620;-64
2023/01/19 07:47:49;;;;;;;6.30;4.77;;;5.10;95.20;;;;;;6298993;28;20496;-65
2023/01/19 07:50:53;;;;;;;29.60;16.80;;;5.10;95.00;;;;;;6299219;28;20777;-65
2023/01/19 07:53:57;;;;;;;9.60;6.07;;;5.10;95.30;;;;;;6280315;28;20482;-65
2023/01/19 07:57:00;;;;;;;15.60;9.93;;;5.00;95.30;;;;;;6274100;28;20470;-65
2023/01/19 08:00:04;;;;;;;5.23;4.10;;;5.00;95.20;;;;;;6274113;28;20457;-65
2023/01/19 08:03:10;;;;;;;3.00;2.80;;;5.10;95.70;;;;;;6274472;28;20438;-65
2023/01/19 08:06:20;;;;;;;2.07;1.87;;;5.10;95.80;;;;;;6274155;28;20438;-65
2023/01/19 08:09:24;;;;;;;2.17;2.07;;;5.20;95.30;;;;;;6274278;28;20466;-65
2023/01/19 08:12:27;;;;;;;1.90;1.80;;;5.10;95.20;;;;;;6274313;28;20480;-65
2023/01/19 08:15:30;;;;;;;2.20;2.00;;;5.20;94.70;;;;;;6273007;28;21115;-65
2023/01/19 08:18:34;;;;;;;2.20;2.10;;;5.20;95.20;;;;;;6260639;28;20947;-62
2023/01/19 08:21:38;;;;;;;2.03;1.93;;;5.20;94.40;;;;;;6260258;28;20481;-62
2023/01/19 08:24:41;;;;;;;2.30;2.10;;;5.20;94.40;;;;;;6261961;28;20471;-62
2023/01/19 08:27:44;;;;;;;2.10;1.90;;;5.20;94.10;;;;;;6265860;28;20946;-62
2023/01/19 08:30:52;;;;;;;2.63;2.20;;;5.20;94.40;;;;;;6267433;28;20777;-62
2023/01/19 08:33:58;;;;;;;2.40;1.87;;;5.20;94.50;;;;;;6257388;28;20960;-62
2023/01/19 08:37:01;;;;;;;2.10;2.00;;;5.20;94.50;;;;;;6253707;28;20471;-62
2023/01/19 08:40:05;;;;;;;2.63;2.00;;;5.30;94.60;;;;;;6253721;28;20486;-62
2023/01/19 08:43:10;;;;;;;2.03;1.93;;;5.30;93.90;;;;;;6253580;28;20532;-62
2023/01/19 08:46:16;;;;;;;3.03;2.83;;;5.20;93.50;;;;;;6253463;28;20470;-62
2023/01/19 08:49:21;;;;;;;27.73;15.60;;;5.30;93.60;;;;;;6253006;28;20528;-62
2023/01/19 08:52:25;;;;;;;12.27;8.87;;;5.40;93.40;;;;;;6259487;28;20564;-62
2023/01/19 08:55:29;;;;;;;11.10;7.53;;;5.50;93.30;;;;;;6257240;28;20475;-62
2023/01/19 08:58:32;;;;;;;3.20;2.90;;;5.50;92.90;;;;;;6252943;28;20474;-62
2023/01/19 09:01:36;;;;;;;2.13;1.93;;;5.50;93.10;;;;;;6252716;28;20466;-62
2023/01/19 09:04:41;;;;;;;2.10;2.00;;;5.60;92.40;;;;;;6252880;28;20467;-63
2023/01/19 09:07:46;;;;;;;1.93;1.83;;;5.60;93.00;;;;;;6242244;28;20474;-62
2023/01/19 09:10:51;;;;;;;3.77;3.47;;;5.70;93.10;;;;;;6251358;28;20467;-62
2023/01/19 09:13:54;;;;;;;13.60;11.30;;;5.80;93.10;;;;;;6250543;28;20471;-62
2023/01/19 09:16:58;;;;;;;8.47;7.67;;;5.80;92.00;;;;;;6250972;28;20974;-62
2023/01/19 09:20:03;;;;;;;4.07;3.70;;;5.80;92.30;;;;;;6251274;28;20471;-62
2023/01/19 09:23:06;;;;;;;19.90;16.33;;;5.80;92.10;;;;;;6253112;28;20459;-63
2023/01/19 09:26:10;;;;;;;2.23;2.13;;;5.80;92.00;;;;;;6277601;28;20469;-62
2023/01/19 09:29:14;;;;;;;2.60;2.40;;;5.90;92.00;;;;;;6303467;28;20461;-63
2023/01/19 09:32:17;;;;;;;1.83;1.73;;;5.90;92.10;;;;;;6301968;28;20481;-64
2023/01/19 09:35:21;;;;;;;2.10;1.60;;;5.90;92.30;;;;;;6301840;28;20469;-63
2023/01/19 09:38:25;;;;;;;3.20;2.07;;;6.10;92.20;;;;;;6300997;28;20485;-63
2023/01/19 09:41:29;;;;;;;3.50;1.93;;;6.20;91.90;;;;;;6302005;28;20949;-63
2023/01/19 09:44:35;;;;;;;2.30;2.07;;;6.40;91.10;;;;;;6301940;28;20473;-63
2023/01/19 09:47:39;;;;;;;2.40;2.00;;;6.50;91.10;;;;;;6302007;28;20975;-63
2023/01/19 09:50:46;;;;;;;3.00;2.00;;;6.60;91.20;;;;;;6301580;28;20478;-64
2023/01/19 09:53:55;;;;;;;2.20;2.00;;;6.60;90.30;;;;;;6301269;28;20817;-63
2023/01/19 09:56:58;;;;;;;25.70;13.90;;;6.60;90.70;;;;;;6289373;28;20482;-63
2023/01/19 10:00:03;;;;;;;39.90;19.20;;;6.60;90.40;;;;;;6276502;28;20470;-64
2023/01/19 10:03:14;;;;;;;2.50;2.30;;;6.60;90.30;;;;;;6276337;28;20462;-63
2023/01/19 10:06:19;;;;;;;7.50;3.97;;;6.60;89.60;;;;;;6276752;28;20513;-63
2023/01/19 10:09:31;;;;;;;11.93;8.90;;;6.50;90.30;;;;;;6271749;28;20766;-63
2023/01/19 10:12:43;;;;;;;3.23;2.93;;;6.50;90.30;;;;;;6276430;28;20482;-63
2023/01/19 10:15:56;;;;;;;2.43;2.23;;;6.50;90.20;;;;;;6276109;28;20474;-63
2023/01/19 10:19:10;;;;;;;8.30;7.60;;;6.40;90.50;;;;;;6276005;28;20475;-63
2023/01/19 10:22:21;;;;;;;2.57;2.37;;;6.40;90.60;;;;;;6270326;28;20463;-65
2023/01/19 10:25:24;;;;;;;4.37;4.00;;;6.30;90.10;;;;;;6270929;28;20493;-63
2023/01/19 10:28:28;;;;;;;7.40;6.90;;;6.30;90.40;;;;;;6264375;28;20680;-65
2023/01/19 10:31:33;;;;;;;3.47;3.17;;;6.30;90.60;;;;;;6264034;28;20458;-65
2023/01/19 10:34:37;;;;;;;3.70;3.40;;;6.20;90.40;;;;;;6275234;28;20780;-65
2023/01/19 10:37:43;;;;;;;4.43;4.13;;;6.20;90.60;;;;;;6251407;28;20483;-65
2023/01/19 10:40:52;;;;;;;3.67;3.37;;;6.20;90.80;;;;;;6267703;28;20550;-63
2023/01/19 10:44:01;;;;;;;3.60;2.50;;;6.20;90.30;;;;;;6250406;28;20471;-62
2023/01/19 10:47:07;;;;;;;3.73;3.43;;;6.10;90.10;;;;;;6250304;28;20549;-70
2023/01/19 10:50:24;;;;;;;16.17;10.07;;;6.10;90.90;;;;;;6269903;28;20493;-66
2023/01/19 10:53:28;;;;;;;2.33;2.10;;;6.10;90.80;;;;;;6274891;28;20482;-64
2023/01/19 10:56:34;;;;;;;2.37;1.90;;;6.10;90.60;;;;;;6269904;28;20480;-63
2023/01/19 10:59:48;;;;;;;2.60;2.40;;;6.10;90.40;;;;;;6274426;28;21121;-62
2023/01/19 11:02:51;;;;;;;4.33;2.17;;;6.00;90.40;;;;;;6275032;28;20476;-63
2023/01/19 11:06:18;;;;;;;1.90;1.80;;;6.00;90.40;;;;;;6264497;28;20475;-61
2023/01/19 11:09:23;;;;;;;3.83;2.13;;;5.90;90.70;;;;;;6254614;28;20466;-61
2023/01/19 11:12:26;;;;;;;2.73;2.53;;;5.90;90.60;;;;;;6255538;28;20458;-62
2023/01/19 11:15:33;;;;;;;2.93;2.07;;;5.80;90.80;;;;;;6258637;28;20466;-61
2023/01/19 11:18:38;;;;;;;2.63;2.43;;;5.90;90.90;;;;;;6274624;28;20477;-61
2023/01/19 11:21:42;;;;;;;3.83;2.00;;;5.90;90.90;;;;;;6274246;28;20477;-60
2023/01/19 11:24:46;;;;;;;1.77;1.67;;;6.00;90.90;;;;;;6274071;28;20980;-61
2023/01/19 11:27:51;;;;;;;2.70;2.50;;;6.00;90.60;;;;;;6297896;28;20794;-61
2023/01/19 11:30:57;;;;;;;2.37;2.20;;;5.90;90.60;;;;;;6272307;28;20463;-61
2023/01/19 11:34:02;;;;;;;1.70;1.60;;;5.90;90.90;;;;;;6262652;28;20544;-61
2023/01/19 11:37:21;;;;;;;2.20;1.80;;;5.90;91.30;;;;;;6257033;28;20498;-61
2023/01/19 11:40:26;;;;;;;2.60;1.83;;;5.80;91.20;;;;;;6249352;28;20967;-61
2023/01/19 11:43:30;;;;;;;2.60;2.40;;;5.70;91.50;;;;;;6249358;28;20474;-61
2023/01/19 11:46:54;;;;;;;7.43;2.33;;;5.80;91.90;;;;;;6249578;28;20525;-61
2023/01/19 11:50:01;;;;;;;8.53;2.63;;;5.80;91.90;;;;;;6249411;28;20478;-61
2023/01/19 11:53:09;;;;;;;1.87;1.77;;;5.80;92.30;;;;;;6248803;28;20827;-61
2023/01/19 11:56:15;;;;;;;1.77;1.50;;;5.80;92.60;;;;;;6255089;28;20477;-61
2023/01/19 11:59:19;;;;;;;1.70;1.60;;;5.60;93.00;;;;;;6273669;28;20485;-61
2023/01/19 12:02:28;;;;;;;1.93;1.77;;;5.50;93.10;;;;;;6277713;28;20895;-61
2023/01/19 12:05:35;;;;;;;2.70;2.00;;;5.60;93.70;;;;;;6278709;28;20966;-59
2023/01/19 12:08:43;;;;;;;14.23;7.57;;;5.60;94.00;;;;;;6267443;28;20479;-59
2023/01/19 12:11:51;;;;;;;11.83;6.97;;;5.60;93.80;;;;;;6263607;28;20478;-59
2023/01/19 12:15:00;;;;;;;3.00;2.00;;;5.80;94.00;;;;;;6261506;28;20483;-59
2023/01/19 12:18:06;;;;;;;1.80;1.60;;;5.80;93.80;;;;;;6271011;28;20478;-59
2023/01/19 12:21:10;;;;;;;18.00;9.73;;;5.80;93.80;;;;;;6267975;28;20443;-59
2023/01/19 12:24:16;;;;;;;23.97;15.07;;;5.80;93.90;;;;;;6267878;28;20434;-60
2023/01/19 12:27:35;;;;;;;13.73;10.80;;;5.90;94.00;;;;;;6267963;28;20450;-59
2023/01/19 12:30:38;;;;;;;2.97;2.77;;;5.90;94.00;;;;;;6268848;28;20477;-60
2023/01/19 12:33:41;;;;;;;1.97;1.50;;;5.90;94.10;;;;;;6262152;28;20801;-60
2023/01/19 12:36:45;;;;;;;2.50;1.70;;;5.90;94.20;;;;;;6266028;28;20470;-59
2023/01/19 12:39:49;;;;;;;2.27;2.13;;;5.90;94.20;;;;;;6264599;28;20479;-59
2023/01/19 12:42:59;;;;;;;1.80;1.70;;;5.90;94.00;;;;;;6266592;28;20459;-59
2023/01/19 12:46:18;;;;;;;1.87;1.57;;;5.80;93.80;;;;;;6257037;28;20478;-60
2023/01/19 12:49:26;;;;;;;2.13;2.00;;;5.70;93.90;;;;;;6252202;28;20843;-61
2023/01/19 12:52:33;;;;;;;5.70;1.77;;;5.70;94.30;;;;;;6252526;28;20526;-62
2023/01/19 12:55:45;;;;;;;2.30;2.10;;;5.80;94.20;;;;;;6254817;28;20471;-63
2023/01/19 12:58:50;;;;;;;1.70;1.60;;;5.90;94.00;;;;;;6277990;28;20532;-61
2023/01/19 13:02:33;;;;;;;1.83;1.73;;;6.00;93.70;;;;;;6277182;28;20477;-61
2023/01/19 13:05:57;;;;;;;1.93;1.67;;;6.00;93.70;;;;;;6277201;28;20524;-62
2023/01/19 13:09:01;;;;;;;1.63;1.30;;;6.10;93.60;;;;;;6276684;28;20498;-60
2023/01/19 13:12:19;;;;;;;2.43;2.23;;;6.30;93.60;;;;;;6275904;28;20469;-61
2023/01/19 13:15:35;;;;;;;1.43;1.33;;;6.30;93.50;;;;;;6277190;28;20489;-60
2023/01/19 13:18:42;;;;;;;1.87;1.60;;;6.30;92.90;;;;;;6263149;28;20479;-61
2023/01/19 13:21:47;;;;;;;2.93;1.60;;;6.30;92.80;;;;;;6276730;28;20532;-60
2023/01/19 13:25:07;;;;;;;1.80;1.70;;;6.30;92.70;;;;;;6276989;28;20470;-59
2023/01/19 13:28:13;;;;;;;2.10;1.57;;;6.30;92.80;;;;;;6252673;28;20476;-62
2023/01/19 13:31:19;;;;;;;1.70;1.60;;;6.20;92.80;;;;;;6287476;28;20523;-60
2023/01/19 13:34:25;;;;;;;2.70;1.80;;;6.10;92.90;;;;;;6276804;28;20474;-60
2023/01/19 13:37:35;;;;;;;1.63;1.47;;;6.10;94.60;;;;;;6272043;28;20820;-60
2023/01/19 13:40:39;;;;;;;1.80;1.70;;;6.20;94.60;;;;;;6263125;28;20926;-60
2023/01/19 13:43:43;;;;;;;4.97;2.43;;;6.10;93.00;;;;;;6261572;28;20801;-59
2023/01/19 13:46:49;;;;;;;3.03;1.80;;;6.00;93.00;;;;;;6251304;28;20482;-60
2023/01/19 13:49:56;;;;;;;2.20;1.97;;;5.90;93.10;;;;;;6249506;28;20479;-60
2023/01/19 13:53:01;;;;;;;1.60;1.50;;;5.80;93.20;;;;;;6249818;28;20470;-60
2023/01/19 13:56:19;;;;;;;2.97;2.03;;;5.70;93.40;;;;;;6249939;28;20481;-60
2023/01/19 13:59:22;;;;;;;2.50;2.30;;;5.60;93.50;;;;;;6249673;28;20471;-60
2023/01/19 14:02:27;;;;;;;2.17;1.50;;;5.60;93.30;;;;;;6249575;28;20474;-60
2023/01/19 14:05:32;;;;;;;4.20;1.63;;;5.50;93.30;;;;;;6250999;28;20687;-60
2023/01/19 14:08:35;;;;;;;1.87;1.60;;;5.50;93.20;;;;;;6250687;28;20494;-61
2023/01/19 14:11:38;;;;;;;1.83;1.57;;;5.50;93.20;;;;;;6250737;28;20474;-60
2023/01/19 14:14:42;;;;;;;3.20;1.70;;;5.50;93.10;;;;;;6250930;28;20502;-60
2023/01/19 14:18:08;;;;;;;1.80;1.70;;;5.50;93.30;;;;;;6250986;28;20475;-60
2023/01/19 14:21:13;;;;;;;4.20;2.60;;;5.40;93.20;;;;;;6245616;28;20454;-60
2023/01/19 14:24:18;;;;;;;3.90;2.93;;;5.40;93.50;;;;;;6274601;28;20745;-60
2023/01/19 14:27:23;;;;;;;5.40;3.60;;;5.50;94.50;;;;;;6295329;28;20893;-60
2023/01/19 14:30:26;;;;;;;6.77;3.30;;;5.50;95.90;;;;;;6289088;28;20462;-60
2023/01/19 14:33:44;;;;;;;3.60;3.30;;;5.50;97.80;;;;;;6255799;28;20479;-60
2023/01/19 14:36:51;;;;;;;5.70;3.77;;;5.40;98.60;;;;;;6250756;28;20812;-60
2023/01/19 14:39:59;;;;;;;4.50;3.87;;;5.40;99.40;;;;;;6250676;28;20542;-60
2023/01/19 14:43:02;;;;;;;4.80;4.07;;;5.30;99.90;;;;;;6251164;28;20935;-60
2023/01/19 14:46:05;;;;;;;8.50;7.40;;;5.20;99.90;;;;;;6250368;28;20475;-60
2023/01/19 14:49:32;;;;;;;9.43;7.00;;;5.20;99.90;;;;;;6250218;28;20498;-60
2023/01/19 14:52:39;;;;;;;9.43;7.20;;;5.20;99.90;;;;;;6250321;28;20495;-61
2023/01/19 14:55:46;;;;;;;6.63;5.93;;;5.10;99.90;;;;;;6253760;28;20474;-60
2023/01/19 14:58:49;;;;;;;5.63;5.13;;;5.10;99.90;;;;;;6274755;28;20518;-60
2023/01/19 15:01:53;;;;;;;6.90;5.53;;;5.10;99.90;;;;;;6274732;28;20470;-60
2023/01/19 15:04:57;;;;;;;6.27;5.67;;;5.10;99.90;;;;;;6274289;28;20477;-60
2023/01/19 15:08:02;;;;;;;10.50;5.33;;;5.10;99.90;;;;;;6273994;28;20822;-60
2023/01/19 15:11:10;;;;;;;5.50;5.00;;;5.00;99.90;;;;;;6274102;28;20470;-60
2023/01/19 15:14:15;;;;;;;5.40;4.90;;;5.00;99.90;;;;;;6260401;28;20474;-60
2023/01/19 15:17:24;;;;;;;4.83;4.43;;;4.90;99.90;;;;;;6265699;28;20474;-60
2023/01/19 15:20:29;;;;;;;7.03;4.33;;;4.80;99.90;;;;;;6274543;28;20485;-60
2023/01/19 15:23:32;;;;;;;4.73;4.20;;;4.90;99.90;;;;;;6274061;28;20470;-61
2023/01/19 15:26:37;;;;;;;5.70;4.40;;;4.80;99.90;;;;;;6283510;28;20480;-59
2023/01/19 15:29:40;;;;;;;6.53;5.00;;;4.80;99.90;;;;;;6295709;28;20478;-63
2023/01/19 15:32:44;;;;;;;5.10;4.70;;;4.80;99.90;;;;;;6263185;28;20549;-61
2023/01/19 15:35:49;;;;;;;7.60;5.30;;;4.70;99.90;;;;;;6248341;28;20478;-62
2023/01/19 15:38:53;;;;;;;5.30;4.63;;;4.60;99.90;;;;;;6249611;28;20498;-61
2023/01/19 15:41:56;;;;;;;7.40;5.60;;;4.60;99.90;;;;;;6252728;28;20467;-61
2023/01/19 15:44:59;;;;;;;9.10;6.20;;;4.50;99.90;;;;;;6249028;28;20491;-61
2023/01/19 15:48:04;;;;;;;6.80;5.80;;;4.40;99.90;;;;;;6249282;28;20470;-60
2023/01/19 15:51:13;;;;;;;7.43;5.53;;;4.30;99.90;;;;;;6253043;28;20442;-61
2023/01/19 15:54:17;;;;;;;5.50;5.00;;;4.20;99.90;;;;;;6257525;28;20577;-62
2023/01/19 15:57:20;;;;;;;5.97;5.37;;;4.10;99.90;;;;;;6261491;28;20484;-61
2023/01/19 16:00:24;;;;;;;7.17;5.83;;;4.20;99.90;;;;;;6255852;28;20438;-61
2023/01/19 16:03:27;;;;;;;5.73;5.23;;;4.20;99.90;;;;;;6273466;28;20486;-62
2023/01/19 16:06:32;;;;;;;5.00;4.50;;;4.20;99.90;;;;;;6251185;28;20859;-60
2023/01/19 16:09:35;;;;;;;16.53;14.83;;;4.10;99.90;;;;;;6248901;28;20475;-61
2023/01/19 16:12:39;;;;;;;13.30;11.97;;;4.20;99.90;;;;;;6250998;28;20835;-61
2023/01/19 16:15:42;;;;;;;10.37;8.87;;;4.20;99.90;;;;;;6273695;28;20805;-61
2023/01/19 16:18:45;;;;;;;10.33;9.33;;;4.00;99.90;;;;;;6274227;28;20485;-64
2023/01/19 16:21:50;;;;;;;7.90;7.20;;;4.00;99.90;;;;;;6273289;28;21071;-63
2023/01/19 16:24:55;;;;;;;10.27;9.33;;;4.00;99.90;;;;;;6273770;28;20477;-64
2023/01/19 16:27:58;;;;;;;9.67;8.77;;;4.10;99.90;;;;;;6249292;28;20489;-63